Time;durP1;ratioP1;P1;durP2;ratioP2;P2;SDS_P1;SDS_P2;PMS_P1;PMS_P2;Temp;Humidity;BMP_temperature;BMP_pressure;BME280_temperature;BME280_humidity;BME280_pressure;Samples;Min_cycle;Max_cycle;Signal;HPM_P1;HPM_P2
2022/06/11 00:01:52;;;;;;;7.80;2.80;;;16.20;99.90;;;;;;5036022;28;20072;-79
2022/06/11 00:04:28;;;;;;;9.93;4.20;;;16.30;99.90;;;;;;5034247;28;20326;-79
2022/06/11 00:07:01;;;;;;;7.07;3.35;;;16.20;99.90;;;;;;5062151;28;20135;-80
2022/06/11 00:09:28;;;;;;;9.20;3.85;;;16.20;99.90;;;;;;5061683;28;20040;-79
2022/06/11 00:11:54;;;;;;;5.82;2.83;;;16.20;99.90;;;;;;5062985;28;20586;-77
2022/06/11 00:14:23;;;;;;;5.72;2.90;;;16.10;99.90;;;;;;5046867;28;20049;-74
2022/06/11 00:16:49;;;;;;;8.13;2.33;;;16.20;99.90;;;;;;5056510;28;20051;-77
2022/06/11 00:19:18;;;;;;;5.25;2.60;;;16.10;99.90;;;;;;5065659;28;20437;-77
2022/06/11 00:21:45;;;;;;;8.33;2.53;;;16.00;99.90;;;;;;5064211;28;20051;-78
2022/06/11 00:24:11;;;;;;;13.73;3.70;;;16.00;99.90;;;;;;5062295;28;20039;-77
2022/06/11 00:26:38;;;;;;;9.05;3.28;;;16.00;99.90;;;;;;5063181;28;20079;-78
2022/06/11 00:29:04;;;;;;;7.15;2.17;;;16.00;99.90;;;;;;5047834;28;20044;-79
2022/06/11 00:31:31;;;;;;;6.50;2.17;;;15.90;99.90;;;;;;5064719;28;20032;-78
2022/06/11 00:33:57;;;;;;;9.02;2.58;;;16.00;99.90;;;;;;5063039;28;20041;-79
2022/06/11 00:36:22;;;;;;;8.20;2.15;;;15.90;99.90;;;;;;5062490;28;20491;-78
2022/06/11 00:38:49;;;;;;;11.70;3.22;;;15.90;99.90;;;;;;5064370;28;20037;-79
2022/06/11 00:41:20;;;;;;;10.02;2.25;;;15.90;99.90;;;;;;5065389;28;20043;-78
2022/06/11 00:43:46;;;;;;;11.10;3.05;;;15.80;99.90;;;;;;5061811;28;20036;-78
2022/06/11 00:46:36;;;;;;;8.00;3.05;;;15.80;99.90;;;;;;5064531;28;20056;-78
2022/06/11 00:49:21;;;;;;;8.43;2.15;;;15.70;99.90;;;;;;5062177;28;20074;-78
2022/06/11 00:51:51;;;;;;;10.88;3.13;;;15.70;99.90;;;;;;5064576;28;20032;-79
2022/06/11 00:54:20;;;;;;;11.75;4.47;;;15.70;99.90;;;;;;5063431;28;20128;-78
2022/06/11 00:56:52;;;;;;;8.55;3.95;;;15.60;99.90;;;;;;5064865;28;20071;-77
2022/06/11 00:59:27;;;;;;;8.45;2.35;;;15.60;99.90;;;;;;5065102;28;20044;-79
2022/06/11 01:01:53;;;;;;;10.90;3.13;;;15.60;99.90;;;;;;5064530;28;20083;-80
2022/06/11 01:04:48;;;;;;;8.70;2.58;;;15.50;99.90;;;;;;5044389;28;20072;-76
2022/06/11 01:07:37;;;;;;;11.10;3.28;;;15.50;99.90;;;;;;5061026;28;20046;-80
2022/06/11 01:10:25;;;;;;;11.82;2.15;;;15.50;99.90;;;;;;5062296;28;20040;-77
2022/06/11 01:13:31;;;;;;;10.57;2.53;;;15.40;99.90;;;;;;5062368;28;20127;-79
2022/06/11 01:16:02;;;;;;;12.00;3.55;;;15.40;99.90;;;;;;5061797;28;20102;-79
2022/06/11 01:18:53;;;;;;;6.60;1.77;;;15.40;99.90;;;;;;5062391;28;20376;-79
2022/06/11 01:21:49;;;;;;;11.85;3.80;;;15.30;99.90;;;;;;5063196;28;20051;-80
2022/06/11 01:24:41;;;;;;;5.93;1.83;;;15.30;99.90;;;;;;5063754;28;20048;-79
2022/06/11 01:27:26;;;;;;;8.93;3.22;;;15.10;99.90;;;;;;5062989;28;20049;-79
2022/06/11 01:30:07;;;;;;;10.63;2.45;;;15.10;99.90;;;;;;5063859;28;20377;-79
2022/06/11 01:33:17;;;;;;;13.05;3.53;;;15.10;99.90;;;;;;5063835;28;20089;-79
2022/06/11 01:35:57;;;;;;;10.50;2.75;;;15.10;99.90;;;;;;4975769;28;20128;-78
2022/06/11 01:38:33;;;;;;;15.15;3.10;;;14.90;99.90;;;;;;5056640;28;20443;-78
2022/06/11 01:41:37;;;;;;;9.38;2.67;;;14.90;99.90;;;;;;5039724;28;20155;-78
2022/06/11 01:44:11;;;;;;;7.38;3.22;;;14.80;99.90;;;;;;5059534;28;20045;-77
2022/06/11 01:46:51;;;;;;;10.23;3.55;;;14.90;99.90;;;;;;5045771;28;20120;-78
2022/06/11 01:49:23;;;;;;;6.93;2.88;;;14.90;99.90;;;;;;5060380;28;20048;-79
2022/06/11 01:52:09;;;;;;;8.45;2.28;;;14.80;99.90;;;;;;5061121;28;20124;-76
2022/06/11 01:54:52;;;;;;;8.18;2.47;;;14.80;99.90;;;;;;5060745;28;20059;-80
2022/06/11 01:57:39;;;;;;;7.05;2.33;;;14.70;99.90;;;;;;5045597;28;20123;-78
2022/06/11 02:00:24;;;;;;;15.63;3.85;;;14.80;99.90;;;;;;5059796;28;20048;-78
2022/06/11 02:03:02;;;;;;;9.43;3.10;;;14.70;99.90;;;;;;5062629;28;20123;-78
2022/06/11 02:05:57;;;;;;;11.68;2.22;;;14.80;99.90;;;;;;5061205;28;20043;-77
2022/06/11 02:08:37;;;;;;;9.10;3.15;;;14.70;99.90;;;;;;5058691;28;20066;-78
2022/06/11 02:11:35;;;;;;;9.88;1.92;;;14.60;99.90;;;;;;5061938;28;20373;-77
2022/06/11 02:14:18;;;;;;;5.35;2.75;;;14.60;99.90;;;;;;5057249;28;20507;-76
2022/06/11 02:16:53;;;;;;;10.32;2.78;;;14.60;99.90;;;;;;5062667;28;20438;-76
2022/06/11 02:19:32;;;;;;;11.15;3.22;;;14.70;99.90;;;;;;5060443;28;20086;-75
2022/06/11 02:22:07;;;;;;;9.18;2.35;;;14.70;99.90;;;;;;5055272;28;20044;-78
2022/06/11 02:24:37;;;;;;;10.52;3.20;;;14.60;99.90;;;;;;5062431;28;20079;-77
2022/06/11 02:27:10;;;;;;;17.88;4.65;;;14.60;99.90;;;;;;5063483;28;20082;-75
2022/06/11 02:29:37;;;;;;;10.43;2.25;;;14.60;99.90;;;;;;5062497;28;20121;-77
2022/06/11 02:32:11;;;;;;;9.48;2.17;;;14.60;99.90;;;;;;5046351;28;20094;-74
2022/06/11 02:34:45;;;;;;;8.02;2.17;;;14.60;99.90;;;;;;5059723;28;20036;-78
2022/06/11 02:37:23;;;;;;;9.43;4.00;;;14.60;99.90;;;;;;5060907;28;20047;-77
2022/06/11 02:39:51;;;;;;;10.30;2.72;;;14.50;99.90;;;;;;5061830;28;20398;-79
2022/06/11 02:42:19;;;;;;;9.50;3.40;;;14.50;99.90;;;;;;5061688;28;20051;-78
2022/06/11 02:44:46;;;;;;;10.50;3.10;;;14.50;99.90;;;;;;5045798;28;20048;-78
2022/06/11 02:47:14;;;;;;;14.73;3.10;;;14.50;99.90;;;;;;5043011;28;20152;-78
2022/06/11 02:49:40;;;;;;;12.05;3.03;;;14.40;99.90;;;;;;5036481;28;20096;-75
2022/06/11 02:52:13;;;;;;;9.23;3.40;;;14.40;99.90;;;;;;5062046;28;20162;-77
2022/06/11 02:54:40;;;;;;;11.38;3.20;;;14.40;99.90;;;;;;5059373;28;20051;-77
2022/06/11 02:57:08;;;;;;;10.27;3.10;;;14.40;99.90;;;;;;5061854;28;20093;-76
2022/06/11 02:59:34;;;;;;;11.63;2.97;;;14.30;99.90;;;;;;5062748;28;20119;-78
2022/06/11 03:02:00;;;;;;;17.50;5.18;;;14.20;99.90;;;;;;5059177;28;20076;-77
2022/06/11 03:04:28;;;;;;;14.05;4.03;;;14.20;99.90;;;;;;5045184;28;20103;-77
2022/06/11 03:06:54;;;;;;;9.93;2.95;;;14.20;99.90;;;;;;5059092;28;20082;-80
2022/06/11 03:09:24;;;;;;;14.45;5.90;;;14.20;99.90;;;;;;5062294;28;20033;-78
2022/06/11 03:11:50;;;;;;;10.02;3.38;;;14.10;99.90;;;;;;5040356;28;20098;-80
2022/06/11 03:14:16;;;;;;;15.02;3.92;;;14.10;99.90;;;;;;5044640;28;20491;-79
2022/06/11 03:16:42;;;;;;;11.05;4.22;;;14.20;99.90;;;;;;5061768;28;20102;-78
2022/06/11 03:19:09;;;;;;;12.00;4.20;;;14.10;99.90;;;;;;5058805;28;20043;-75
2022/06/11 03:21:36;;;;;;;10.85;3.85;;;14.00;99.90;;;;;;5037142;28;20788;-78
2022/06/11 03:24:02;;;;;;;10.63;3.50;;;14.00;99.90;;;;;;5059848;28;20510;-78
2022/06/11 03:26:28;;;;;;;10.25;3.30;;;14.00;99.90;;;;;;5060573;28;20036;-79
2022/06/11 03:28:53;;;;;;;10.68;3.63;;;14.00;99.90;;;;;;5062193;28;20086;-77
2022/06/11 03:31:19;;;;;;;11.65;3.65;;;14.00;99.90;;;;;;5062023;28;20068;-77
2022/06/11 03:33:45;;;;;;;12.07;3.60;;;14.00;99.90;;;;;;5040662;28;20111;-78
2022/06/11 03:36:15;;;;;;;16.48;4.93;;;14.00;99.90;;;;;;5059598;28;20048;-78
2022/06/11 03:38:42;;;;;;;11.68;4.68;;;13.90;99.90;;;;;;5042829;28;20040;-80
2022/06/11 03:41:09;;;;;;;15.52;4.97;;;13.90;99.90;;;;;;5061540;28;20036;-78
2022/06/11 03:43:35;;;;;;;14.02;3.85;;;13.90;99.90;;;;;;5061376;28;20083;-79
2022/06/11 03:46:01;;;;;;;11.27;3.42;;;14.00;99.90;;;;;;5062205;28;20136;-77
2022/06/11 03:48:31;;;;;;;15.10;3.15;;;13.90;99.90;;;;;;5057389;28;20033;-78
2022/06/11 03:50:59;;;;;;;12.95;3.45;;;13.90;99.90;;;;;;5060126;28;20067;-79
2022/06/11 03:53:27;;;;;;;20.20;5.20;;;14.00;99.90;;;;;;5060723;28;20086;-78
2022/06/11 03:55:53;;;;;;;14.05;4.18;;;14.00;99.90;;;;;;5061147;28;20032;-79
2022/06/11 03:58:19;;;;;;;9.70;3.33;;;14.00;99.90;;;;;;5057168;28;20123;-76
2022/06/11 04:03:32;;;;;;;12.32;3.08;;;14.10;99.90;;;;;;5060328;28;20076;-77
2022/06/11 04:05:58;;;;;;;12.02;3.42;;;14.10;99.90;;;;;;5039432;28;20964;-78
2022/06/11 04:08:26;;;;;;;17.15;4.57;;;14.20;99.90;;;;;;5061348;28;20033;-79
2022/06/11 04:10:56;;;;;;;8.90;2.95;;;14.20;99.90;;;;;;5058897;28;20041;-78
2022/06/11 04:13:23;;;;;;;13.10;5.10;;;14.40;99.90;;;;;;5060614;28;20635;-79
2022/06/11 04:15:50;;;;;;;10.23;3.47;;;14.50;99.90;;;;;;5061557;28;20043;-77
2022/06/11 04:18:29;;;;;;;13.68;3.80;;;14.40;99.90;;;;;;5059944;28;20169;-78
2022/06/11 04:20:55;;;;;;;9.50;3.30;;;14.40;99.90;;;;;;5058063;28;20428;-77
2022/06/11 04:23:24;;;;;;;16.58;4.15;;;14.50;99.90;;;;;;5058821;28;20487;-77
2022/06/11 04:25:50;;;;;;;7.55;2.85;;;14.50;99.90;;;;;;5060663;28;20033;-79
2022/06/11 04:28:16;;;;;;;13.77;3.00;;;14.70;99.90;;;;;;5061929;28;20044;-79
2022/06/11 04:30:42;;;;;;;15.25;3.20;;;15.30;99.90;;;;;;5061770;28;20068;-78
2022/06/11 04:33:07;;;;;;;18.60;3.88;;;15.40;99.90;;;;;;5057052;28;20515;-77
2022/06/11 04:35:33;;;;;;;21.13;4.05;;;15.40;99.90;;;;;;5058435;28;20045;-78
2022/06/11 04:37:59;;;;;;;17.60;4.80;;;15.60;99.90;;;;;;5043439;28;20041;-79
2022/06/11 04:40:25;;;;;;;13.88;3.17;;;15.40;99.90;;;;;;5059907;28;20090;-77
2022/06/11 04:42:51;;;;;;;12.88;4.50;;;15.40;99.90;;;;;;5042684;28;20098;-78
2022/06/11 04:45:18;;;;;;;17.98;5.25;;;15.60;99.90;;;;;;5060032;28;20057;-79
2022/06/11 04:47:45;;;;;;;9.77;3.47;;;15.70;99.90;;;;;;5060876;28;20087;-78
2022/06/11 04:50:15;;;;;;;13.07;4.05;;;15.80;99.90;;;;;;5060570;28;20040;-78
2022/06/11 04:52:41;;;;;;;20.13;4.35;;;15.80;99.90;;;;;;5060573;28;20131;-78
2022/06/11 04:55:08;;;;;;;14.30;4.75;;;15.70;99.90;;;;;;5061200;28;20048;-78
2022/06/11 04:57:34;;;;;;;22.95;4.50;;;15.70;99.90;;;;;;5063120;28;20514;-78
2022/06/11 04:59:59;;;;;;;20.55;4.13;;;15.70;99.90;;;;;;5063724;28;20068;-78
2022/06/11 05:02:25;;;;;;;17.85;5.57;;;15.70;99.90;;;;;;5062656;28;20552;-78
2022/06/11 05:04:52;;;;;;;15.73;4.43;;;15.70;99.90;;;;;;5064131;28;20036;-78
2022/06/11 05:07:19;;;;;;;21.60;5.10;;;15.60;99.90;;;;;;5063550;28;20045;-78
2022/06/11 05:09:45;;;;;;;29.08;5.72;;;15.60;99.90;;;;;;5057171;28;20047;-78
2022/06/11 05:12:11;;;;;;;27.52;7.25;;;15.60;99.90;;;;;;5061991;28;20040;-78
2022/06/11 05:14:38;;;;;;;24.55;5.63;;;15.60;99.90;;;;;;5063597;28;20044;-78
2022/06/11 05:17:04;;;;;;;22.35;5.00;;;15.60;99.90;;;;;;5063121;28;20045;-76
2022/06/11 05:19:30;;;;;;;17.63;5.15;;;15.70;99.90;;;;;;5062020;28;20051;-79
2022/06/11 05:21:56;;;;;;;18.45;4.35;;;15.60;99.90;;;;;;5064617;28;20454;-77
2022/06/11 05:24:22;;;;;;;26.10;6.60;;;15.70;99.90;;;;;;5059005;28;20211;-76
2022/06/11 05:26:55;;;;;;;18.35;5.40;;;15.70;99.90;;;;;;5064716;28;20047;-79
2022/06/11 05:29:29;;;;;;;23.67;6.45;;;15.80;99.90;;;;;;5061689;28;20448;-78
2022/06/11 05:31:55;;;;;;;23.00;5.93;;;15.80;99.90;;;;;;5062547;28;20723;-78
2022/06/11 05:34:21;;;;;;;18.15;4.95;;;15.80;99.90;;;;;;5043085;28;20071;-78
2022/06/11 05:36:48;;;;;;;21.60;5.05;;;15.90;99.90;;;;;;5063590;28;20064;-78
2022/06/11 05:39:14;;;;;;;19.75;6.45;;;15.80;99.90;;;;;;5062023;28;20040;-78
2022/06/11 05:41:40;;;;;;;22.50;7.15;;;16.00;99.90;;;;;;5056798;28;20032;-75
2022/06/11 05:44:05;;;;;;;31.92;6.78;;;15.90;99.90;;;;;;5062169;28;20055;-78
2022/06/11 05:46:32;;;;;;;31.92;7.03;;;15.90;99.90;;;;;;5061020;28;20047;-79
2022/06/11 05:49:02;;;;;;;27.88;6.80;;;16.00;99.90;;;;;;5045352;28;20044;-79
2022/06/11 05:51:35;;;;;;;23.88;6.13;;;15.90;99.90;;;;;;5059704;28;20047;-79
2022/06/11 05:54:06;;;;;;;27.02;7.65;;;16.00;99.90;;;;;;5061717;28;20047;-77
2022/06/11 05:56:31;;;;;;;25.30;5.75;;;16.00;99.90;;;;;;5048942;28;20457;-78
2022/06/11 05:59:01;;;;;;;25.52;6.30;;;16.00;99.90;;;;;;5063759;28;20045;-79
2022/06/11 06:01:31;;;;;;;29.98;6.53;;;16.10;99.90;;;;;;5061182;28;20036;-77
2022/06/11 06:03:57;;;;;;;23.45;5.63;;;16.10;99.90;;;;;;5063234;28;20530;-79
2022/06/11 06:06:23;;;;;;;23.38;7.50;;;16.20;99.90;;;;;;5069531;28;20041;-82
2022/06/11 06:08:49;;;;;;;29.70;7.57;;;16.10;99.90;;;;;;5066540;28;20039;-82
2022/06/11 06:11:15;;;;;;;31.13;6.80;;;16.20;99.90;;;;;;5067320;28;20080;-82
2022/06/11 06:13:46;;;;;;;24.70;7.45;;;16.30;99.90;;;;;;5066090;28;20542;-80
2022/06/11 06:16:14;;;;;;;26.75;6.82;;;16.30;99.90;;;;;;5066627;28;20086;-81
2022/06/11 06:18:40;;;;;;;29.65;6.90;;;16.40;99.90;;;;;;5054171;28;20051;-81
2022/06/11 06:21:06;;;;;;;24.70;5.88;;;16.40;99.90;;;;;;5067115;28;20044;-83
2022/06/11 06:23:34;;;;;;;26.40;6.13;;;16.50;99.90;;;;;;5046739;28;20049;-83
2022/06/11 06:26:00;;;;;;;32.40;8.13;;;16.60;99.90;;;;;;5063162;28;20050;-81
2022/06/11 06:28:25;;;;;;;27.42;6.85;;;16.50;99.90;;;;;;5063993;28;20052;-82
2022/06/11 06:30:51;;;;;;;24.23;6.25;;;16.60;99.90;;;;;;5058981;28;20123;-75
2022/06/11 06:33:17;;;;;;;28.90;6.78;;;16.50;99.90;;;;;;5050229;28;20548;-81
2022/06/11 06:35:43;;;;;;;25.95;7.18;;;16.60;99.90;;;;;;5068870;28;20049;-76
2022/06/11 06:38:09;;;;;;;26.60;6.82;;;16.60;99.90;;;;;;5063819;28;20792;-79
2022/06/11 06:40:35;;;;;;;23.85;7.28;;;16.80;99.90;;;;;;5066568;28;20055;-88
2022/06/11 06:43:02;;;;;;;30.15;8.88;;;16.80;99.90;;;;;;5050025;28;20079;-79
2022/06/11 06:45:28;;;;;;;27.63;7.63;;;17.00;99.90;;;;;;5030592;28;20411;-85
2022/06/11 06:47:54;;;;;;;25.33;7.80;;;17.10;99.90;;;;;;5045760;28;20506;-86
2022/06/11 06:50:20;;;;;;;25.88;6.57;;;17.20;99.90;;;;;;5044854;28;20029;-82
2022/06/11 06:52:46;;;;;;;23.33;5.72;;;17.40;99.90;;;;;;5047708;28;20055;-88
2022/06/11 06:55:13;;;;;;;21.55;4.88;;;17.50;99.90;;;;;;5059227;28;20403;-86
2022/06/11 06:57:39;;;;;;;18.80;5.38;;;17.80;99.90;;;;;;5039089;28;20052;-78
2022/06/11 07:00:07;;;;;;;20.25;5.05;;;18.60;99.90;;;;;;5048577;28;20470;-83
2022/06/11 07:02:32;;;;;;;22.83;7.55;;;19.40;99.90;;;;;;5065002;28;20413;-86
2022/06/11 07:04:59;;;;;;;24.45;5.20;;;20.00;99.90;;;;;;5062606;28;20048;-85
2022/06/11 07:07:25;;;;;;;26.33;5.82;;;20.40;99.90;;;;;;5043637;28;20407;-87
2022/06/11 07:09:56;;;;;;;23.65;6.25;;;20.40;99.90;;;;;;5064318;28;20372;-85
2022/06/11 07:12:23;;;;;;;22.88;6.53;;;19.80;99.90;;;;;;5056380;28;20089;-85
2022/06/11 07:14:49;;;;;;;27.55;6.90;;;20.70;99.90;;;;;;5057910;28;20048;-84
2022/06/11 07:17:16;;;;;;;22.27;5.30;;;21.10;99.90;;;;;;5044480;28;20399;-85
2022/06/11 07:19:54;;;;;;;21.20;4.80;;;21.20;99.90;;;;;;5062884;28;20399;-85
2022/06/11 07:22:26;;;;;;;31.33;5.28;;;21.30;99.90;;;;;;5053221;28;20556;-81
2022/06/11 07:24:52;;;;;;;20.15;6.03;;;21.70;99.90;;;;;;5053352;28;20032;-85
2022/06/11 07:27:26;;;;;;;36.08;8.27;;;21.60;99.90;;;;;;5043788;28;20282;-85
2022/06/11 07:30:19;;;;;;;19.58;4.57;;;20.60;99.90;;;;;;5062617;28;20068;-86
2022/06/11 07:32:49;;;;;;;24.20;6.70;;;19.70;99.90;;;;;;5048408;28;20071;-85
2022/06/11 07:35:16;;;;;;;19.33;4.35;;;19.30;99.90;;;;;;5047954;28;20048;-87
2022/06/11 07:37:44;;;;;;;19.77;5.03;;;19.70;99.90;;;;;;5064773;28;20072;-87
2022/06/11 07:40:10;;;;;;;22.77;6.38;;;19.40;99.90;;;;;;5064346;28;20047;-86
2022/06/11 07:42:36;;;;;;;20.02;4.75;;;19.50;99.90;;;;;;5064693;28;20388;-87
2022/06/11 07:45:03;;;;;;;22.88;5.15;;;19.50;99.90;;;;;;5042907;28;20045;-86
2022/06/11 07:50:13;;;;;;;21.88;5.40;;;19.60;99.90;;;;;;5061399;28;20040;-82
2022/06/11 07:52:40;;;;;;;17.75;5.22;;;19.60;99.90;;;;;;5061363;28;20550;-85
2022/06/11 07:55:07;;;;;;;21.05;5.30;;;19.00;99.90;;;;;;5061449;28;20038;-87
2022/06/11 07:57:33;;;;;;;26.45;6.28;;;19.30;99.90;;;;;;5064576;28;20108;-86
2022/06/11 07:59:59;;;;;;;19.38;6.93;;;19.50;99.90;;;;;;5062298;28;20136;-84
2022/06/11 08:02:25;;;;;;;25.27;5.85;;;19.90;99.90;;;;;;5062722;28;20079;-87
2022/06/11 08:04:51;;;;;;;17.85;4.88;;;19.80;99.90;;;;;;5046420;28;20079;-83
2022/06/11 08:07:17;;;;;;;19.15;6.43;;;19.60;99.90;;;;;;5063241;28;20041;-86
2022/06/11 08:09:43;;;;;;;17.48;5.03;;;19.40;99.90;;;;;;5064048;28;20084;-86
2022/06/11 08:12:09;;;;;;;21.48;6.13;;;19.40;99.90;;;;;;5059507;28;20123;-82
2022/06/11 08:14:35;;;;;;;22.77;6.20;;;19.70;99.90;;;;;;5056164;28;20060;-87
2022/06/11 08:17:01;;;;;;;18.20;5.15;;;19.80;99.90;;;;;;5056577;28;20040;-82
2022/06/11 08:19:28;;;;;;;19.08;6.13;;;19.80;99.90;;;;;;5054021;28;20112;-86
2022/06/11 08:21:56;;;;;;;18.20;4.72;;;20.00;99.90;;;;;;5059238;28;20033;-85
2022/06/11 08:24:22;;;;;;;16.92;3.72;;;20.00;99.90;;;;;;5060252;28;20052;-85
2022/06/11 08:26:47;;;;;;;18.83;4.78;;;20.20;99.90;;;;;;5045820;28;20036;-87
2022/06/11 08:29:13;;;;;;;15.25;5.07;;;20.20;99.90;;;;;;5064896;28;20056;-85
2022/06/11 08:31:39;;;;;;;19.83;5.43;;;19.90;99.90;;;;;;5056189;28;20573;-85
2022/06/11 08:34:04;;;;;;;16.23;4.93;;;20.00;99.90;;;;;;5037996;28;20056;-88
2022/06/11 08:36:30;;;;;;;21.70;4.07;;;20.20;99.90;;;;;;5067533;28;20072;-86
2022/06/11 08:38:56;;;;;;;21.85;5.88;;;20.30;99.90;;;;;;5066354;28;20048;-85
2022/06/11 08:41:27;;;;;;;13.10;3.88;;;20.40;99.90;;;;;;5068523;28;20051;-87
2022/06/11 08:44:02;;;;;;;18.42;4.10;;;20.30;99.90;;;;;;5068749;28;20136;-85
2022/06/11 08:46:35;;;;;;;15.10;5.10;;;20.10;99.90;;;;;;5072870;28;20083;-87
2022/06/11 08:49:04;;;;;;;15.90;4.10;;;20.20;99.90;;;;;;5066151;28;20053;-81
2022/06/11 08:51:45;;;;;;;14.18;4.05;;;20.30;99.90;;;;;;5069771;28;20052;-83
2022/06/11 08:54:15;;;;;;;11.93;3.13;;;20.40;99.90;;;;;;5065455;28;20048;-85
2022/06/11 08:57:08;;;;;;;18.13;4.82;;;20.40;99.90;;;;;;5067053;28;20048;-83
2022/06/11 08:59:40;;;;;;;13.50;3.22;;;20.30;99.90;;;;;;5069932;28;20098;-82
2022/06/11 09:02:44;;;;;;;20.73;4.82;;;20.10;99.90;;;;;;5065486;28;20055;-86
2022/06/11 09:05:29;;;;;;;11.40;2.75;;;20.60;99.90;;;;;;5069487;28;20637;-88
2022/06/11 09:08:42;;;;;;;11.00;3.97;;;20.60;99.90;;;;;;5075860;28;20033;-87
2022/06/11 09:11:40;;;;;;;17.52;5.18;;;20.40;99.90;;;;;;5067446;28;20041;-87
2022/06/11 09:14:27;;;;;;;10.93;3.42;;;20.60;99.90;;;;;;5056548;28;20041;-90
2022/06/11 09:16:53;;;;;;;16.98;3.80;;;20.50;99.90;;;;;;5050848;28;20083;-90
2022/06/11 09:19:39;;;;;;;17.98;3.47;;;20.50;99.90;;;;;;5052495;28;20419;-89
2022/06/11 09:22:08;;;;;;;15.45;2.45;;;20.60;99.90;;;;;;5050139;28;20074;-89
2022/06/11 09:24:55;;;;;;;9.63;2.63;;;20.70;99.90;;;;;;5052304;28;20430;-89
2022/06/11 09:27:37;;;;;;;9.70;2.83;;;20.60;99.90;;;;;;5060878;28;20108;-80
2022/06/11 09:30:18;;;;;;;13.00;2.72;;;20.80;99.90;;;;;;5062587;28;20144;-81
2022/06/11 09:33:05;;;;;;;12.95;2.63;;;20.70;99.90;;;;;;5062400;28;20076;-87
2022/06/11 09:35:43;;;;;;;16.27;4.10;;;20.70;99.90;;;;;;5066562;28;20049;-87
2022/06/11 09:38:27;;;;;;;15.02;2.70;;;20.70;99.90;;;;;;5064035;28;20183;-86
2022/06/11 09:41:12;;;;;;;14.68;3.08;;;20.50;99.90;;;;;;5065220;28;20040;-86
2022/06/11 09:43:51;;;;;;;9.13;2.25;;;20.60;99.90;;;;;;5041572;28;20048;-79
2022/06/11 09:46:54;;;;;;;16.83;4.05;;;20.70;99.90;;;;;;5066484;28;20136;-88
2022/06/11 09:49:31;;;;;;;16.45;5.50;;;20.70;99.90;;;;;;5040452;28;20062;-87
2022/06/11 09:52:14;;;;;;;18.48;3.60;;;20.80;99.90;;;;;;5067346;28;20410;-85
2022/06/11 09:55:13;;;;;;;13.07;4.10;;;21.00;99.90;;;;;;5066743;28;20041;-88
2022/06/11 09:57:50;;;;;;;15.27;3.50;;;21.20;99.90;;;;;;5070129;28;20048;-85
2022/06/11 10:00:30;;;;;;;16.30;4.53;;;20.90;99.90;;;;;;5061847;28;20041;-86
2022/06/11 10:06:03;;;;;;;14.50;3.08;;;21.20;99.90;;;;;;5052972;28;20051;-86
2022/06/11 10:08:35;;;;;;;16.40;3.92;;;21.10;99.90;;;;;;5053258;28;20123;-85
2022/06/11 10:11:04;;;;;;;15.90;3.83;;;21.40;99.90;;;;;;5068064;28;20040;-85
2022/06/11 10:13:46;;;;;;;24.58;3.35;;;21.50;99.90;;;;;;5065250;28;20044;-86
2022/06/11 10:16:37;;;;;;;10.20;2.47;;;21.40;99.90;;;;;;5063815;28;20044;-85
2022/06/11 10:19:17;;;;;;;14.85;3.40;;;21.20;99.90;;;;;;5045838;28;20403;-82
2022/06/11 10:22:25;;;;;;;15.82;2.95;;;21.30;99.90;;;;;;5065351;28;20036;-87
2022/06/11 10:25:11;;;;;;;14.48;4.50;;;20.90;99.90;;;;;;4994302;28;20100;-86
2022/06/11 10:27:43;;;;;;;9.70;2.65;;;21.40;99.90;;;;;;4959077;28;20563;-86
2022/06/11 10:30:33;;;;;;;14.43;3.88;;;21.40;99.90;;;;;;5030407;28;20576;-82
2022/06/11 10:33:00;;;;;;;;;;;21.40;99.90;;;;;;5054147;28;20095;-86
2022/06/11 10:35:37;;;;;;;15.98;3.28;;;21.00;99.90;;;;;;5065416;28;19928;-84
2022/06/11 10:38:33;;;;;;;15.27;4.03;;;21.00;99.90;;;;;;5057874;28;20052;-84
2022/06/11 10:41:01;;;;;;;12.10;3.95;;;21.50;99.90;;;;;;5064177;28;20098;-85
2022/06/11 10:43:45;;;;;;;10.38;3.47;;;21.50;99.90;;;;;;5065482;28;20536;-84
2022/06/11 10:46:11;;;;;;;11.13;3.35;;;21.20;99.90;;;;;;5042314;28;20122;-88
2022/06/11 10:48:38;;;;;;;10.05;3.33;;;21.10;99.90;;;;;;5061137;28;20110;-86
2022/06/11 10:51:25;;;;;;;11.07;2.92;;;21.20;99.90;;;;;;5066162;28;20036;-88
2022/06/11 10:54:19;;;;;;;12.48;3.53;;;21.70;99.90;;;;;;5064356;28;20483;-86
2022/06/11 10:56:49;;;;;;;11.23;2.60;;;21.40;99.90;;;;;;5047329;28;20041;-86
2022/06/11 10:59:30;;;;;;;11.45;3.47;;;21.70;99.90;;;;;;5064775;28;20403;-87
2022/06/11 11:02:28;;;;;;;13.25;2.88;;;21.30;99.90;;;;;;5063555;28;20068;-86
2022/06/11 11:05:07;;;;;;;13.38;3.80;;;21.20;99.90;;;;;;5036635;28;20517;-84
2022/06/11 11:08:05;;;;;;;12.68;2.67;;;21.30;99.90;;;;;;5062679;28;20044;-82
2022/06/11 11:10:34;;;;;;;10.75;3.10;;;21.40;99.90;;;;;;5028781;28;20056;-85
2022/06/11 11:13:02;;;;;;;8.63;2.50;;;21.40;99.90;;;;;;5062861;28;20131;-84
2022/06/11 11:15:37;;;;;;;11.70;3.28;;;21.50;99.90;;;;;;5063724;28;20137;-83
2022/06/11 11:18:17;;;;;;;8.15;2.17;;;21.70;99.90;;;;;;5043556;28;20512;-83
2022/06/11 11:20:45;;;;;;;12.88;2.95;;;21.30;99.90;;;;;;5065617;28;20097;-83
2022/06/11 11:23:15;;;;;;;12.68;3.30;;;21.40;99.90;;;;;;5045771;28;20044;-82
2022/06/11 11:25:52;;;;;;;11.88;3.38;;;21.40;99.90;;;;;;5043574;28;20124;-83
2022/06/11 11:28:30;;;;;;;7.78;2.38;;;21.50;99.90;;;;;;5045222;28;20053;-85
2022/06/11 11:31:15;;;;;;;10.30;2.45;;;21.60;99.90;;;;;;5045019;28;20045;-83
2022/06/11 11:33:45;;;;;;;13.73;2.97;;;21.80;99.90;;;;;;5057412;28;20131;-81
2022/06/11 11:36:12;;;;;;;26.80;5.25;;;21.80;99.90;;;;;;5062984;28;20453;-82
2022/06/11 11:38:38;;;;;;;15.50;3.95;;;21.80;99.90;;;;;;5062153;28;20040;-81
2022/06/11 11:41:04;;;;;;;9.13;2.67;;;21.50;99.90;;;;;;5071965;28;20104;-80
2022/06/11 11:43:41;;;;;;;18.00;4.10;;;21.40;99.90;;;;;;5066097;28;20487;-79
2022/06/11 11:46:13;;;;;;;12.60;3.05;;;21.40;99.90;;;;;;5064312;28;20049;-77
2022/06/11 11:48:48;;;;;;;6.45;2.13;;;21.20;99.90;;;;;;5061639;28;20147;-78
2022/06/11 11:51:22;;;;;;;6.18;2.13;;;20.90;99.90;;;;;;5062831;28;20157;-76
2022/06/11 11:53:51;;;;;;;13.30;3.20;;;21.10;99.90;;;;;;5061965;28;20076;-78
2022/06/11 11:56:34;;;;;;;6.10;1.90;;;21.20;99.90;;;;;;5063799;28;20044;-76
2022/06/11 11:59:16;;;;;;;14.77;3.53;;;21.60;99.90;;;;;;5044707;28;20049;-77
2022/06/11 12:01:44;;;;;;;6.80;1.63;;;21.70;99.90;;;;;;5045336;28;20041;-77
2022/06/11 12:04:19;;;;;;;9.30;2.15;;;21.80;99.90;;;;;;5061333;28;20052;-77
2022/06/11 12:06:57;;;;;;;9.20;2.17;;;21.60;99.90;;;;;;5033458;28;20419;-78
2022/06/11 12:09:47;;;;;;;8.52;1.98;;;21.40;99.90;;;;;;5066741;28;20104;-76
2022/06/11 12:12:22;;;;;;;8.73;2.20;;;21.60;99.90;;;;;;5064405;28;20160;-76
2022/06/11 12:14:57;;;;;;;9.75;3.00;;;21.60;99.90;;;;;;5067598;28;20090;-76
2022/06/11 12:17:41;;;;;;;13.25;2.78;;;21.60;99.90;;;;;;5065339;28;20040;-76
2022/06/11 12:20:22;;;;;;;14.98;3.42;;;21.20;99.90;;;;;;5067248;28;20127;-76
2022/06/11 12:22:53;;;;;;;11.13;2.17;;;21.10;99.90;;;;;;5060806;28;20036;-79
2022/06/11 12:25:56;;;;;;;8.00;2.80;;;21.40;99.90;;;;;;5066465;28;20043;-74
2022/06/11 12:28:47;;;;;;;12.35;2.83;;;21.20;99.90;;;;;;5047081;28;20059;-75
2022/06/11 12:31:14;;;;;;;9.75;2.92;;;21.10;99.90;;;;;;5044887;28;20148;-76
2022/06/11 12:33:43;;;;;;;12.00;2.08;;;21.50;99.90;;;;;;5064477;28;20059;-75
2022/06/11 12:36:15;;;;;;;8.38;2.88;;;21.70;99.90;;;;;;5045010;28;20047;-79
2022/06/11 12:38:59;;;;;;;9.27;3.58;;;21.70;99.90;;;;;;5047628;28;20052;-77
2022/06/11 12:42:03;;;;;;;7.55;2.38;;;21.80;99.90;;;;;;5046480;28;20056;-85
2022/06/11 12:44:56;;;;;;;11.93;3.03;;;22.30;99.90;;;;;;5065741;28;20052;-82
2022/06/11 12:47:31;;;;;;;12.13;2.95;;;22.00;99.90;;;;;;5046334;28;20119;-82
2022/06/11 12:50:06;;;;;;;13.50;3.75;;;22.10;99.90;;;;;;5021040;28;20036;-81
2022/06/11 12:52:41;;;;;;;9.77;3.10;;;22.10;99.90;;;;;;5038020;28;20048;-81
2022/06/11 12:55:25;;;;;;;12.98;3.08;;;21.80;99.90;;;;;;5066550;28;20033;-80
2022/06/11 12:57:56;;;;;;;7.20;2.97;;;21.80;99.90;;;;;;5048550;28;20430;-83
2022/06/11 13:00:41;;;;;;;7.82;2.65;;;21.60;99.90;;;;;;5065893;28;20072;-83
2022/06/11 13:03:12;;;;;;;11.95;3.15;;;22.00;99.90;;;;;;5041907;28;20041;-80
2022/06/11 13:05:53;;;;;;;13.48;3.70;;;22.10;99.90;;;;;;5061074;28;20532;-85
2022/06/11 13:08:31;;;;;;;14.43;3.70;;;21.20;99.90;;;;;;5048888;28;20068;-78
2022/06/11 13:11:25;;;;;;;11.15;3.15;;;21.40;99.90;;;;;;5047569;28;20048;-85
2022/06/11 13:13:59;;;;;;;16.70;3.90;;;21.90;99.90;;;;;;5047475;28;20037;-83
2022/06/11 13:16:51;;;;;;;12.45;3.75;;;22.10;99.90;;;;;;5049039;28;20467;-83
2022/06/11 13:19:40;;;;;;;14.13;3.20;;;21.60;99.90;;;;;;5028404;28;20037;-84